Time;durP1;ratioP1;P1;durP2;ratioP2;P2;SDS_P1;SDS_P2;PMS_P1;PMS_P2;Temp;Humidity;BMP_temperature;BMP_pressure;BME280_temperature;BME280_humidity;BME280_pressure;Samples;Min_cycle;Max_cycle;Signal;HPM_P1;HPM_P2
2024/03/17 00:01:41;;;;;;;2.05;1.95;;;;;;;7.10;100.00;101052.94;5042450;28;20774;-78
2024/03/17 00:04:07;;;;;;;1.55;1.48;;;;;;;6.93;100.00;101024.69;5035958;28;20512;-79
2024/03/17 00:06:33;;;;;;;1.27;1.23;;;;;;;6.94;100.00;101039.50;5036985;28;20049;-79
2024/03/17 00:08:58;;;;;;;23.45;17.30;;;;;;;6.78;100.00;101003.44;5050946;28;20060;-78
2024/03/17 00:11:25;;;;;;;1.58;1.52;;;;;;;6.64;100.00;101010.03;5040710;28;20512;-79
2024/03/17 00:13:50;;;;;;;0.30;0.30;;;;;;;6.57;100.00;101015.94;5038547;28;20074;-79
2024/03/17 00:16:19;;;;;;;2.38;2.25;;;;;;;6.78;100.00;101021.69;5045001;28;20029;-79
2024/03/17 00:18:46;;;;;;;0.95;0.85;;;;;;;6.73;100.00;101018.09;5040618;28;20139;-80
2024/03/17 00:21:13;;;;;;;1.67;1.58;;;;;;;6.95;100.00;101051.72;5043190;28;20049;-79
2024/03/17 00:23:39;;;;;;;1.20;1.10;;;;;;;6.63;100.00;101022.19;5045572;28;20103;-79
2024/03/17 00:26:04;;;;;;;2.53;1.67;;;;;;;6.69;100.00;101048.41;5047457;28;20041;-79
2024/03/17 00:28:30;;;;;;;2.72;2.05;;;;;;;6.58;100.00;101049.88;5046457;28;20535;-77
2024/03/17 00:30:55;;;;;;;3.05;2.90;;;;;;;6.53;100.00;101043.63;5045072;28;20144;-77
2024/03/17 00:33:21;;;;;;;3.92;3.72;;;;;;;6.81;100.00;101044.34;5042662;28;20084;-78
2024/03/17 00:35:46;;;;;;;0.40;0.40;;;;;;;6.67;100.00;101013.63;5041725;28;20061;-79
2024/03/17 00:38:12;;;;;;;0.70;0.70;;;;;;;7.01;100.00;101048.34;5040306;28;20041;-78
2024/03/17 00:40:40;;;;;;;0.55;0.55;;;;;;;7.07;100.00;101061.56;5048018;28;20200;-78
2024/03/17 00:43:06;;;;;;;0.90;0.73;;;;;;;6.96;100.00;101050.84;5045185;28;20538;-79
2024/03/17 00:45:32;;;;;;;61.67;11.90;;;;;;;6.79;100.00;101025.19;5046790;28;20037;-79
2024/03/17 00:47:57;;;;;;;0.50;0.50;;;;;;;6.92;100.00;101046.41;5041215;28;20041;-80
2024/03/17 00:50:23;;;;;;;14.20;12.90;;;;;;;7.01;100.00;101048.34;5044171;28;20412;-80
2024/03/17 00:52:49;;;;;;;3.72;3.53;;;;;;;6.83;100.00;101055.72;5043092;28;20130;-81
2024/03/17 00:55:14;;;;;;;8.15;7.78;;;;;;;6.88;100.00;101054.09;5047441;28;20651;-81
2024/03/17 00:57:41;;;;;;;2.03;1.77;;;;;;;6.53;100.00;101022.78;5045808;28;20044;-81
2024/03/17 01:00:10;;;;;;;0.95;0.95;;;;;;;6.58;100.00;101051.56;5041987;28;20057;-81
2024/03/17 01:02:35;;;;;;;27.50;17.13;;;;;;;6.78;100.00;101054.72;5039243;28;20060;-79
2024/03/17 01:05:01;;;;;;;0.30;0.30;;;;;;;6.67;100.00;101057.94;5045939;28;20029;-80
2024/03/17 01:07:28;;;;;;;0.95;0.95;;;;;;;6.47;100.00;101023.50;5044938;28;20036;-80
2024/03/17 01:09:54;;;;;;;0.52;0.52;;;;;;;6.58;100.00;101041.16;5045532;28;20072;-77
2024/03/17 01:12:20;;;;;;;7.57;2.13;;;;;;;6.20;100.00;101012.34;5049969;28;20125;-76
2024/03/17 01:14:46;;;;;;;2.05;1.95;;;;;;;6.33;100.00;101017.94;5051221;28;20227;-79
2024/03/17 01:17:11;;;;;;;6.35;5.88;;;;;;;6.57;100.00;101045.50;5046327;28;20467;-80
2024/03/17 01:19:37;;;;;;;1.52;1.52;;;;;;;6.23;100.00;101009.84;5042486;28;20029;-79
2024/03/17 01:22:03;;;;;;;0.75;0.75;;;;;;;5.91;100.00;101044.50;5039520;28;20136;-78
2024/03/17 01:24:31;;;;;;;1.45;1.35;;;;;;;5.59;100.00;101006.22;5060754;28;20117;-77
2024/03/17 01:27:01;;;;;;;7.90;4.13;;;;;;;6.15;100.00;101038.25;5043486;28;20049;-78
2024/03/17 01:29:27;;;;;;;3.33;2.08;;;;;;;6.18;100.00;101030.56;5042328;28;20049;-77
2024/03/17 01:31:54;;;;;;;2.67;2.03;;;;;;;5.61;100.00;101002.81;5050579;28;20064;-78
2024/03/17 01:34:20;;;;;;;1.10;1.10;;;;;;;5.63;100.00;101037.59;5063244;28;20500;-78
2024/03/17 01:36:45;;;;;;;6.70;6.40;;;;;;;5.72;100.00;101045.69;5041632;28;20509;-78
2024/03/17 01:39:11;;;;;;;3.13;2.92;;;;;;;6.06;100.00;101045.81;5045817;28;20548;-78
2024/03/17 01:41:37;;;;;;;2.15;2.05;;;;;;;6.06;100.00;101038.91;5041582;28;20054;-80
2024/03/17 01:44:03;;;;;;;1.98;1.88;;;;;;;6.00;100.00;101022.22;5043858;28;20078;-80
2024/03/17 01:46:29;;;;;;;1.08;0.98;;;;;;;5.95;100.00;101032.50;5047884;28;20029;-80
2024/03/17 01:48:55;;;;;;;1.42;1.33;;;;;;;6.01;100.00;101040.47;5045303;28;20140;-79
2024/03/17 01:51:22;;;;;;;3.90;3.70;;;;;;;5.63;100.00;101000.28;5045746;28;20416;-81
2024/03/17 01:53:50;;;;;;;3.83;3.60;;;;;;;5.63;100.00;100992.47;5044820;28;20049;-80
2024/03/17 01:56:17;;;;;;;5.50;5.18;;;;;;;5.71;100.00;101002.28;5043126;28;20512;-78
2024/03/17 01:58:45;;;;;;;0.70;0.70;;;;;;;5.79;100.00;101012.03;5046610;28;20021;-80
2024/03/17 02:01:14;;;;;;;1.98;1.88;;;;;;;5.94;100.00;101030.72;5044140;28;20045;-77
2024/03/17 02:03:41;;;;;;;1.75;1.65;;;;;;;5.91;100.00;101025.41;5042225;28;20056;-78
2024/03/17 02:06:09;;;;;;;1.13;1.10;;;;;;;5.80;100.00;100996.44;5041157;28;20510;-80
2024/03/17 02:08:51;;;;;;;19.88;18.55;;;;;;;5.83;100.00;101014.78;5040716;28;20056;-81
2024/03/17 02:11:28;;;;;;;8.35;7.50;;;;;;;5.97;100.00;101037.75;5037654;28;20459;-80
2024/03/17 02:13:55;;;;;;;9.43;8.98;;;;;;;5.57;100.00;100980.16;5037454;28;20401;-79
2024/03/17 02:16:21;;;;;;;0.32;0.32;;;;;;;5.69;100.00;101026.50;5044108;28;20047;-80
2024/03/17 02:18:46;;;;;;;1.05;1.00;;;;;;;5.84;100.00;101024.34;5041426;28;20044;-78
2024/03/17 02:21:15;;;;;;;16.98;15.50;;;;;;;5.75;100.00;100990.22;5042923;28;20278;-80
2024/03/17 02:23:42;;;;;;;0.70;0.70;;;;;;;5.61;100.00;100976.78;5043816;28;20374;-80
2024/03/17 02:26:08;;;;;;;0.40;0.40;;;;;;;5.75;100.00;100984.13;5041570;28;20076;-83
2024/03/17 02:28:44;;;;;;;1.33;1.02;;;;;;;5.96;100.00;101029.06;5049825;28;20067;-79
2024/03/17 02:31:12;;;;;;;2.70;2.58;;;;;;;5.66;100.00;100977.81;5038873;28;20041;-82
2024/03/17 02:33:38;;;;;;;0.30;0.30;;;;;;;5.47;100.00;100979.00;5036849;28;20052;-80
2024/03/17 02:36:09;;;;;;;0.40;0.40;;;;;;;5.76;100.00;101020.66;5039895;28;20052;-80
2024/03/17 02:41:20;;;;;;;0.40;0.40;;;;;;;5.53;100.00;100978.31;5038425;28;20399;-80
2024/03/17 02:43:46;;;;;;;1.90;1.75;;;;;;;5.60;100.00;100979.38;5039593;28;20694;-79
2024/03/17 02:46:16;;;;;;;1.65;1.55;;;;;;;5.78;100.00;101007.66;5036072;28;20111;-80
2024/03/17 02:48:49;;;;;;;2.00;1.90;;;;;;;5.87;100.00;101013.13;5038689;28;20140;-82
2024/03/17 02:51:16;;;;;;;1.75;1.67;;;;;;;5.91;100.00;101012.38;5053986;28;20045;-80
2024/03/17 02:53:42;;;;;;;12.70;11.25;;;;;;;5.60;100.00;100964.63;5041972;28;20144;-77
2024/03/17 02:56:09;;;;;;;4.03;3.83;;;;;;;5.53;100.00;101008.66;5038097;28;20146;-80
2024/03/17 02:58:35;;;;;;;10.27;9.27;;;;;;;5.56;100.00;100980.13;5042851;28;20044;-80
2024/03/17 03:01:05;;;;;;;11.02;10.23;;;;;;;5.77;100.00;100990.28;5043152;28;20194;-79
2024/03/17 03:03:32;;;;;;;0.40;0.40;;;;;;;5.54;100.00;100969.66;5040782;28;20087;-82
2024/03/17 03:05:58;;;;;;;1.48;1.02;;;;;;;5.81;100.00;100999.94;5055651;28;20109;-82
2024/03/17 03:08:24;;;;;;;5.22;4.78;;;;;;;5.78;100.00;100992.03;5047413;28;20051;-79
2024/03/17 03:10:50;;;;;;;0.63;0.60;;;;;;;5.86;100.00;101003.56;5042897;28;20425;-79
2024/03/17 03:13:16;;;;;;;0.57;0.57;;;;;;;5.80;100.00;100990.34;5042923;28;20036;-81
2024/03/17 03:15:42;;;;;;;2.25;2.17;;;;;;;5.83;100.00;100995.63;5043557;28;20135;-79
2024/03/17 03:18:08;;;;;;;19.52;10.13;;;;;;;5.47;100.00;100957.28;5043833;28;20045;-79
2024/03/17 03:20:34;;;;;;;0.57;0.57;;;;;;;5.58;100.00;100975.84;5053786;28;20574;-81
2024/03/17 03:23:00;;;;;;;8.48;8.13;;;;;;;5.53;100.00;100985.25;5043479;28;20040;-80
2024/03/17 03:25:26;;;;;;;3.72;3.50;;;;;;;5.57;100.00;101000.09;5045998;28;20108;-78
2024/03/17 03:27:53;;;;;;;1.35;1.25;;;;;;;5.38;100.00;100962.22;5045303;28;20045;-77
2024/03/17 03:30:21;;;;;;;3.05;2.85;;;;;;;5.40;100.00;100960.56;5043246;28;20045;-77
2024/03/17 03:32:47;;;;;;;4.15;3.95;;;;;;;5.35;100.00;100962.13;5060066;28;20579;-77
2024/03/17 03:35:14;;;;;;;1.05;1.05;;;;;;;5.47;100.00;100997.22;5043735;28;20515;-78
2024/03/17 03:37:41;;;;;;;0.40;0.40;;;;;;;5.55;100.00;100997.47;5048821;28;20033;-80
2024/03/17 03:40:16;;;;;;;12.35;6.40;;;;;;;5.61;100.00;100982.00;5039194;28;20045;-81
2024/03/17 03:42:45;;;;;;;0.68;0.68;;;;;;;5.54;100.00;100964.44;5045808;28;20156;-81
2024/03/17 03:45:14;;;;;;;11.48;6.57;;;;;;;5.69;100.00;100993.53;5045351;28;20068;-80
2024/03/17 03:47:43;;;;;;;1.48;1.38;;;;;;;5.65;100.00;100993.41;5057073;28;20040;-82
2024/03/17 03:50:13;;;;;;;0.70;0.70;;;;;;;5.63;100.00;100992.47;5060704;28;20377;-80
2024/03/17 03:52:40;;;;;;;1.75;1.65;;;;;;;5.49;100.00;101000.75;5041970;28;20326;-80
2024/03/17 03:55:10;;;;;;;34.08;8.63;;;;;;;5.32;100.00;100968.13;5041394;28;20057;-82
2024/03/17 03:57:36;;;;;;;2.83;2.72;;;;;;;5.71;100.00;101003.97;5046261;28;20493;-83
2024/03/17 04:00:12;;;;;;;24.30;10.23;;;;;;;5.73;100.00;101004.91;5047163;28;20055;-81
2024/03/17 04:02:42;;;;;;;5.35;5.07;;;;;;;5.64;100.00;100994.22;5048187;28;20045;-80
2024/03/17 04:05:08;;;;;;;6.95;6.43;;;;;;;5.74;100.00;101009.28;5047058;28;20080;-80
2024/03/17 04:07:35;;;;;;;1.00;1.00;;;;;;;5.68;100.00;101003.91;5047844;28;20079;-79
2024/03/17 04:10:03;;;;;;;3.65;3.45;;;;;;;5.56;100.00;100983.59;5050394;28;20058;-79
2024/03/17 04:12:32;;;;;;;3.20;3.00;;;;;;;5.78;100.00;101005.03;5045906;28;20049;-81
2024/03/17 04:14:58;;;;;;;1.83;1.75;;;;;;;5.76;100.00;100972.88;5043116;28;20049;-80
2024/03/17 04:17:24;;;;;;;1.80;1.60;;;;;;;5.77;100.00;100998.09;5055626;28;20121;-81
2024/03/17 04:19:54;;;;;;;0.68;0.68;;;;;;;5.64;100.00;100996.81;5063417;28;20464;-82
2024/03/17 04:22:21;;;;;;;0.65;0.65;;;;;;;5.78;100.00;101016.34;5054487;28;20566;-83
2024/03/17 04:24:53;;;;;;;0.95;0.95;;;;;;;5.72;100.00;101016.19;5043224;28;20136;-83
2024/03/17 04:27:20;;;;;;;4.72;1.58;;;;;;;5.72;100.00;101016.19;5045119;28;20053;-81
2024/03/17 04:30:05;;;;;;;2.47;2.38;;;;;;;5.62;100.00;101025.44;5059122;28;20171;-81
2024/03/17 04:32:31;;;;;;;4.25;4.00;;;;;;;5.74;100.00;101024.91;5042298;28;20477;-80
2024/03/17 04:34:57;;;;;;;0.93;0.93;;;;;;;5.60;100.00;101032.31;5046192;28;20029;-80
2024/03/17 04:37:24;;;;;;;1.50;1.40;;;;;;;5.82;100.00;101005.19;5049382;28;20633;-83
2024/03/17 04:39:50;;;;;;;0.85;0.85;;;;;;;6.13;100.00;101030.44;5043221;28;20064;-82
2024/03/17 04:42:18;;;;;;;0.50;0.40;;;;;;;5.97;100.00;100996.97;5050212;28;20481;-80
2024/03/17 04:44:44;;;;;;;0.95;0.95;;;;;;;6.17;100.00;101033.97;5048489;28;20083;-81
2024/03/17 04:47:10;;;;;;;2.65;2.55;;;;;;;6.20;100.00;101030.56;5052992;28;20121;-82
2024/03/17 04:49:43;;;;;;;6.00;5.63;;;;;;;6.23;100.00;101038.50;5050368;28;20049;-81
2024/03/17 04:52:16;;;;;;;1.98;1.88;;;;;;;6.15;100.00;101033.06;5045363;28;20102;-84
2024/03/17 04:54:42;;;;;;;0.63;0.50;;;;;;;6.23;100.00;101025.47;5046859;28;20608;-81
2024/03/17 04:57:08;;;;;;;1.77;1.55;;;;;;;6.44;100.00;101036.47;5042670;28;20068;-82
2024/03/17 04:59:35;;;;;;;1.85;1.75;;;;;;;6.31;100.00;101000.47;5048133;28;20052;-82
2024/03/17 05:02:00;;;;;;;3.58;3.40;;;;;;;6.60;100.00;101044.69;5037351;28;20036;-79
2024/03/17 05:04:26;;;;;;;6.93;2.70;;;;;;;6.55;100.00;101047.16;5044073;28;20041;-79
2024/03/17 05:06:52;;;;;;;0.63;0.63;;;;;;;6.40;100.00;100999.84;5042841;28;20045;-80
2024/03/17 05:09:17;;;;;;;4.25;4.05;;;;;;;6.68;100.00;101030.13;5043871;28;20413;-80
2024/03/17 05:11:43;;;;;;;0.75;0.75;;;;;;;6.87;100.00;101041.91;5044399;28;20055;-80
2024/03/17 05:14:09;;;;;;;1.40;1.30;;;;;;;6.69;100.00;101009.28;5048024;28;20048;-81
2024/03/17 05:16:35;;;;;;;0.85;0.85;;;;;;;6.93;100.00;101035.13;5048941;28;20119;-79
2024/03/17 05:19:00;;;;;;;3.90;3.40;;;;;;;7.03;100.00;101038.84;5051702;28;20037;-79
2024/03/17 05:21:30;;;;;;;1.85;1.75;;;;;;;7.18;100.00;101028.75;5057132;28;20215;-79
2024/03/17 05:23:57;;;;;;;3.05;2.85;;;;;;;7.16;100.00;100998.25;5044088;28;20051;-78
2024/03/17 05:26:24;;;;;;;0.60;0.60;;;;;;;7.23;100.00;100994.06;5045361;28;20111;-79
2024/03/17 05:28:50;;;;;;;1.17;1.17;;;;;;;7.54;100.00;101024.38;5047333;28;20068;-81
2024/03/17 05:31:17;;;;;;;1.67;1.58;;;;;;;7.49;100.00;101002.47;5051114;28;20654;-81
2024/03/17 05:33:46;;;;;;;1.55;1.45;;;;;;;7.84;100.00;101013.66;5038098;28;20788;-80
2024/03/17 05:36:11;;;;;;;5.28;3.33;;;;;;;8.02;100.00;101002.72;5041975;28;20111;-81
2024/03/17 05:38:37;;;;;;;0.93;0.93;;;;;;;8.09;100.00;101004.59;5038594;28;20678;-80
2024/03/17 05:41:05;;;;;;;0.63;0.55;;;;;;;8.23;100.00;101004.88;5042640;28;20060;-79
2024/03/17 05:43:38;;;;;;;1.50;1.42;;;;;;;8.27;100.00;100972.72;5041868;28;20043;-80
2024/03/17 05:46:06;;;;;;;1.42;1.35;;;;;;;8.54;100.00;101008.09;5038484;28;20493;-79
2024/03/17 05:48:33;;;;;;;11.77;9.32;;;;;;;8.43;100.00;100966.94;5039205;28;20605;-81
2024/03/17 05:51:02;;;;;;;1.75;1.65;;;;;;;8.80;100.00;101003.31;5039527;28;20627;-78
2024/03/17 05:53:28;;;;;;;2.35;2.25;;;;;;;8.53;100.00;100969.72;5037901;28;20041;-80
2024/03/17 05:55:55;;;;;;;0.93;0.93;;;;;;;8.62;100.00;100956.81;5039137;28;20491;-80
2024/03/17 05:58:21;;;;;;;4.95;4.65;;;;;;;8.75;100.00;100976.19;5044465;28;20032;-80
2024/03/17 06:00:46;;;;;;;1.67;1.58;;;;;;;8.96;100.00;100986.13;5045521;28;20052;-81
2024/03/17 06:03:13;;;;;;;0.30;0.30;;;;;;;9.09;100.00;100990.69;5041456;28;20148;-77
2024/03/17 06:05:43;;;;;;;9.13;8.63;;;;;;;9.12;100.00;100964.56;5039760;28;20318;-78
2024/03/17 06:08:11;;;;;;;1.55;1.45;;;;;;;9.11;100.00;100954.03;5044609;28;20052;-79
2024/03/17 06:10:37;;;;;;;1.17;1.17;;;;;;;9.23;100.00;100959.47;5040302;28;20068;-81
2024/03/17 06:13:03;;;;;;;0.73;0.73;;;;;;;9.50;100.00;100986.06;5033578;28;20053;-79
2024/03/17 06:15:29;;;;;;;0.73;0.73;;;;;;;9.52;100.00;100976.47;5045226;28;20064;-82
2024/03/17 06:17:55;;;;;;;2.05;1.15;;;;;;;9.56;100.00;100990.50;5044836;28;20053;-80
2024/03/17 06:20:23;;;;;;;6.70;5.78;;;;;;;9.51;100.00;100958.13;5043651;28;20045;-81
2024/03/17 06:22:49;;;;;;;0.40;0.40;;;;;;;9.86;100.00;100992.63;5047049;28;20036;-81
2024/03/17 06:25:15;;;;;;;6.20;5.57;;;;;;;9.84;100.00;100990.84;5054794;28;20728;-81
2024/03/17 06:27:42;;;;;;;1.35;1.30;;;;;;;9.93;100.00;100990.97;5041737;28;20559;-81
2024/03/17 06:30:14;;;;;;;23.38;22.02;;;;;;;9.91;100.00;100985.69;5049445;28;20127;-83
2024/03/17 06:32:47;;;;;;;7.85;5.63;;;;;;;10.00;100.00;100979.69;5044308;28;20524;-82
2024/03/17 06:35:25;;;;;;;3.42;2.47;;;;;;;10.18;100.00;100957.16;5042259;28;20057;-79
2024/03/17 06:37:52;;;;;;;1.75;1.65;;;;;;;10.35;100.00;100989.72;5035614;28;20035;-85
2024/03/17 06:40:18;;;;;;;5.93;5.35;;;;;;;10.13;100.00;100981.56;5041912;28;20044;-85
2024/03/17 06:42:44;;;;;;;0.30;0.30;;;;;;;10.35;100.00;100964.34;5040877;28;20147;-81
2024/03/17 06:45:10;;;;;;;5.18;4.90;;;;;;;10.41;100.00;100962.66;5046447;28;20492;-79
2024/03/17 06:47:37;;;;;;;1.98;1.83;;;;;;;10.81;100.00;100995.38;5048388;28;20057;-82
2024/03/17 06:50:06;;;;;;;5.22;4.70;;;;;;;10.70;100.00;100960.28;5047670;28;20638;-77
2024/03/17 06:52:32;;;;;;;6.20;5.63;;;;;;;10.93;100.00;100971.88;5049065;28;20058;-87
2024/03/17 06:54:58;;;;;;;7.22;6.22;;;;;;;10.78;100.00;100953.34;5044534;28;20401;-79
2024/03/17 06:57:24;;;;;;;9.20;6.40;;;;;;;11.14;100.00;100986.00;5032537;28;20045;-80
2024/03/17 06:59:50;;;;;;;10.38;7.03;;;;;;;10.84;100.00;100965.63;5057076;28;20165;-84
2024/03/17 07:02:19;;;;;;;7.45;6.75;;;;;;;10.93;100.00;100964.00;5054373;28;20076;-85
2024/03/17 07:04:46;;;;;;;8.77;7.03;;;;;;;10.88;100.00;100962.19;5032005;28;20039;-78
2024/03/17 07:07:13;;;;;;;6.60;5.85;;;;;;;11.08;100.00;100968.47;5031545;28;20143;-84
2024/03/17 07:09:39;;;;;;;12.23;7.22;;;;;;;11.09;100.00;100964.09;5026322;28;20163;-84
2024/03/17 07:12:07;;;;;;;13.30;8.77;;;;;;;11.35;100.00;100996.63;5030165;28;20118;-76
2024/03/17 07:14:32;;;;;;;7.47;5.45;;;;;;;11.23;100.00;100966.78;5037364;28;20057;-79
2024/03/17 07:16:58;;;;;;;0.77;0.77;;;;;;;11.38;100.00;100985.31;5036334;28;20040;-78
2024/03/17 07:19:23;;;;;;;8.23;5.55;;;;;;;11.55;100.00;101002.03;5034082;28;20048;-77
2024/03/17 07:21:49;;;;;;;6.53;5.93;;;;;;;11.69;100.00;101003.84;5034237;28;20047;-86
2024/03/17 07:24:15;;;;;;;4.60;4.28;;;;;;;11.78;100.00;100991.63;5035270;28;21474;-82
2024/03/17 07:26:43;;;;;;;9.00;6.78;;;;;;;11.66;100.00;100972.28;5037119;28;20512;-79
2024/03/17 07:29:08;;;;;;;5.43;4.97;;;;;;;11.37;100.00;100971.25;5045994;28;20049;-78
2024/03/17 07:31:34;;;;;;;6.30;4.85;;;;;;;11.58;100.00;100954.72;5047741;28;20025;-80
2024/03/17 07:34:00;;;;;;;6.93;6.40;;;;;;;11.90;100.00;100992.59;5040886;28;20080;-79
2024/03/17 07:36:26;;;;;;;15.82;7.03;;;;;;;11.91;100.00;100966.28;5040706;28;20147;-77
2024/03/17 07:38:52;;;;;;;5.03;4.40;;;;;;;12.16;100.00;100997.94;5033966;28;20044;-76
2024/03/17 07:41:19;;;;;;;7.55;6.82;;;;;;;11.87;100.00;100966.22;5036357;28;20045;-78
2024/03/17 07:43:45;;;;;;;9.15;6.03;;;;;;;11.96;100.00;100966.28;5039755;28;20025;-77
2024/03/17 07:46:13;;;;;;;6.53;5.72;;;;;;;11.79;100.00;100989.88;5042875;28;20503;-78
2024/03/17 07:48:43;;;;;;;5.60;5.10;;;;;;;11.36;100.00;100966.00;5039970;28;20053;-79
2024/03/17 07:51:13;;;;;;;4.78;4.40;;;;;;;11.88;100.00;100970.66;5043864;28;20139;-81
2024/03/17 07:53:41;;;;;;;6.32;5.07;;;;;;;12.19;100.00;100998.81;5057756;28;20072;-75
2024/03/17 07:56:11;;;;;;;7.22;6.03;;;;;;;12.40;100.00;100983.94;5043606;28;20080;-80
2024/03/17 07:58:38;;;;;;;11.55;8.48;;;;;;;12.35;100.00;100980.44;5041614;28;20033;-77
2024/03/17 08:01:12;;;;;;;10.30;7.22;;;;;;;12.56;100.00;100988.34;5039855;28;20061;-80
2024/03/17 08:03:39;;;;;;;6.32;4.57;;;;;;;12.62;100.00;100982.25;5040557;28;20882;-77
2024/03/17 08:06:06;;;;;;;5.63;3.95;;;;;;;12.52;100.00;100978.69;5051025;28;20433;-80
2024/03/17 08:08:33;;;;;;;8.27;7.20;;;;;;;12.65;100.00;100977.84;5040693;28;20041;-77
2024/03/17 08:10:59;;;;;;;7.35;6.05;;;;;;;12.51;100.00;100949.75;5039851;28;20057;-78
2024/03/17 08:13:25;;;;;;;5.88;5.30;;;;;;;12.37;100.00;100947.97;5039160;28;20095;-78
2024/03/17 08:15:59;;;;;;;12.23;10.05;;;;;;;12.69;100.00;100955.03;5053666;28;20041;-81
2024/03/17 08:18:26;;;;;;;4.32;3.58;;;;;;;12.84;100.00;100975.22;5057808;28;20037;-84
2024/03/17 08:20:54;;;;;;;7.63;6.78;;;;;;;12.77;100.00;100947.13;5038484;28;20049;-84
2024/03/17 08:23:20;;;;;;;5.32;4.50;;;;;;;12.71;100.00;100940.09;5041432;28;20133;-81
2024/03/17 08:25:56;;;;;;;6.03;5.03;;;;;;;12.84;100.00;100972.56;5044062;28;20060;-80
2024/03/17 08:28:22;;;;;;;4.65;3.22;;;;;;;12.76;100.00;100945.34;5051230;28;20040;-82
2024/03/17 08:30:55;;;;;;;2.63;2.40;;;;;;;12.78;100.00;100964.66;5037763;28;20068;-78
2024/03/17 08:33:22;;;;;;;6.18;5.57;;;;;;;12.81;100.00;100965.56;5044044;28;20045;-79
2024/03/17 08:35:55;;;;;;;3.85;3.50;;;;;;;12.63;100.00;100957.66;5044430;28;20083;-78
2024/03/17 08:38:23;;;;;;;4.00;3.70;;;;;;;12.59;100.00;100945.34;5042245;28;20738;-80
2024/03/17 08:40:52;;;;;;;4.85;3.58;;;;;;;12.49;100.00;100941.84;5034937;28;20055;-80
2024/03/17 08:43:19;;;;;;;3.58;1.85;;;;;;;12.58;100.00;100955.03;5038951;28;20645;-81
2024/03/17 08:45:45;;;;;;;7.72;4.47;;;;;;;12.52;100.00;100914.66;5040412;28;20048;-78
2024/03/17 08:48:11;;;;;;;6.60;3.22;;;;;;;12.90;100.00;100956.78;5037659;28;20121;-76
2024/03/17 08:50:37;;;;;;;7.40;6.22;;;;;;;12.61;100.00;100926.03;5043866;28;20550;-83
2024/03/17 08:53:03;;;;;;;9.55;4.05;;;;;;;12.89;100.00;100933.94;5045317;28;20112;-81
2024/03/17 08:55:29;;;;;;;7.00;3.00;;;;;;;12.88;100.00;100940.09;5041708;28;20115;-85
2024/03/17 08:57:55;;;;;;;8.25;4.30;;;;;;;13.10;100.00;100946.19;5043290;28;20520;-84
2024/03/17 09:00:20;;;;;;;4.53;4.05;;;;;;;12.97;100.00;100905.84;5041778;28;20124;-84
2024/03/17 09:02:46;;;;;;;3.13;2.90;;;;;;;13.31;100.00;100940.03;5051121;28;20048;-85
2024/03/17 09:05:14;;;;;;;2.55;2.33;;;;;;;13.32;100.00;100928.59;5049969;28;20510;-87
2024/03/17 09:07:40;;;;;;;2.47;2.28;;;;;;;12.99;100.00;100905.81;5041252;28;20036;-85
2024/03/17 09:10:06;;;;;;;3.00;2.50;;;;;;;13.09;100.00;100907.56;5039937;28;20391;-85
2024/03/17 09:12:33;;;;;;;5.63;3.17;;;;;;;13.26;100.00;100923.34;5055990;28;20055;-77
2024/03/17 09:15:06;;;;;;;2.35;2.15;;;;;;;13.40;100.00;100925.97;5044618;28;20057;-74
2024/03/17 09:17:31;;;;;;;3.40;2.88;;;;;;;13.23;100.00;100889.09;5044824;28;20122;-82
2024/03/17 09:19:57;;;;;;;4.38;3.97;;;;;;;13.26;100.00;100916.31;5043753;28;20494;-83
2024/03/17 09:22:23;;;;;;;3.88;3.50;;;;;;;13.52;100.00;100920.63;5051419;28;20029;-80
2024/03/17 09:24:48;;;;;;;5.82;5.28;;;;;;;13.53;100.00;100914.47;5039999;28;20095;-79
2024/03/17 09:27:18;;;;;;;5.65;5.15;;;;;;;13.34;100.00;100887.31;5037841;28;20560;-80
2024/03/17 09:29:46;;;;;;;8.70;5.00;;;;;;;13.26;100.00;100891.72;5036662;28;20049;-80
2024/03/17 09:32:17;;;;;;;11.90;5.18;;;;;;;13.49;100.00;100918.91;5041191;28;21194;-80
2024/03/17 09:34:48;;;;;;;4.60;4.05;;;;;;;13.48;100.00;100893.41;5040834;28;20091;-81
2024/03/17 09:37:15;;;;;;;3.28;2.97;;;;;;;13.66;100.00;100917.94;5042316;28;20040;-81
2024/03/17 09:39:41;;;;;;;5.82;3.70;;;;;;;13.49;100.00;100860.03;5047923;28;20041;-80
2024/03/17 09:42:17;;;;;;;3.55;2.78;;;;;;;13.79;100.00;100884.47;5040009;28;20484;-80
2024/03/17 09:44:45;;;;;;;3.22;2.92;;;;;;;13.66;100.00;100907.41;5035610;28;20037;-81
2024/03/17 09:47:19;;;;;;;2.25;2.03;;;;;;;13.67;100.00;100903.88;5038249;28;20057;-81
2024/03/17 09:49:45;;;;;;;2.88;2.60;;;;;;;13.70;100.00;100898.59;5057581;28;20577;-81
2024/03/17 09:52:18;;;;;;;3.55;2.58;;;;;;;13.71;100.00;100906.47;5038982;28;20139;-81
2024/03/17 09:54:43;;;;;;;4.60;4.25;;;;;;;13.84;100.00;100901.16;5040257;28;20041;-81
2024/03/17 09:57:16;;;;;;;2.35;2.15;;;;;;;13.60;100.00;100884.59;5036746;28;20045;-82
2024/03/17 09:59:42;;;;;;;1.85;1.73;;;;;;;13.65;100.00;100853.78;5035091;28;20498;-81
2024/03/17 10:02:18;;;;;;;3.65;2.33;;;;;;;14.03;100.00;100902.78;5034667;28;20061;-80
2024/03/17 10:04:43;;;;;;;4.88;2.50;;;;;;;14.22;100.00;100894.75;5038239;28;20093;-80
2024/03/17 10:07:09;;;;;;;2.00;1.77;;;;;;;13.84;100.00;100887.97;5037565;28;20048;-80
2024/03/17 10:09:36;;;;;;;4.13;3.63;;;;;;;14.00;100.00;100881.72;5037291;28;20088;-81
2024/03/17 10:12:02;;;;;;;0.93;0.88;;;;;;;14.14;100.00;100861.38;5039205;28;20515;-80
2024/03/17 10:14:28;;;;;;;1.40;1.08;;;;;;;14.28;100.00;100866.56;5038012;28;20053;-81
2024/03/17 10:16:53;;;;;;;3.55;2.35;;;;;;;14.33;100.00;100855.97;5043302;28;20029;-81
2024/03/17 10:19:27;;;;;;;1.65;1.55;;;;;;;14.34;100.00;100870.91;5043517;28;20500;-82
2024/03/17 10:22:00;;;;;;;2.50;2.30;;;;;;;14.38;100.00;100854.16;5048469;28;20140;-82
2024/03/17 10:24:28;;;;;;;1.10;1.00;;;;;;;14.46;100.00;100864.63;5059951;28;20045;-81
2024/03/17 10:26:56;;;;;;;1.83;1.73;;;;;;;14.45;100.00;100876.09;5040702;28;20072;-80
2024/03/17 10:29:30;;;;;;;1.88;1.75;;;;;;;14.63;100.00;100883.00;5043492;28;20036;-82
2024/03/17 10:31:57;;;;;;;4.15;2.50;;;;;;;14.91;100.00;100875.69;5044864;28;20389;-80
2024/03/17 10:34:25;;;;;;;4.57;1.75;;;;;;;14.83;100.00;100865.19;5057249;28;20025;-81
2024/03/17 10:37:22;;;;;;;2.70;2.00;;;;;;;15.11;100.00;100856.97;5042284;28;20536;-81
2024/03/17 10:39:51;;;;;;;0.98;0.95;;;;;;;15.20;100.00;100856.88;5040388;28;20077;-80
2024/03/17 10:42:31;;;;;;;3.00;2.67;;;;;;;15.59;100.00;100868.72;5042539;28;20055;-81
2024/03/17 10:44:58;;;;;;;2.22;2.10;;;;;;;15.84;100.00;100863.09;5059073;28;20611;-82
2024/03/17 10:47:27;;;;;;;1.00;0.95;;;;;;;15.86;100.00;100829.56;5040162;28;20139;-82
2024/03/17 10:49:55;;;;;;;4.13;1.45;;;;;;;16.53;100.00;100853.19;5044702;28;20181;-81
2024/03/17 10:52:23;;;;;;;1.27;1.13;;;;;;;16.62;100.00;100869.81;5041685;28;20094;-81
2024/03/17 10:55:01;;;;;;;1.00;0.90;;;;;;;16.77;100.00;100866.00;5035705;28;20100;-81
2024/03/17 10:57:36;;;;;;;2.05;1.38;;;;;;;17.19;100.00;100866.13;5037492;28;20050;-81
2024/03/17 11:00:05;;;;;;;1.17;1.05;;;;;;;16.91;100.00;100839.28;5017432;28;20106;-80
2024/03/17 11:02:32;;;;;;;2.55;1.17;;;;;;;16.72;100.00;100857.28;5016378;28;20061;-81
2024/03/17 11:05:22;;;;;;;2.97;2.05;;;;;;;17.29;100.00;100864.16;5024041;28;20128;-81
2024/03/17 11:07:49;;;;;;;0.82;0.65;;;;;;;17.30;100.00;100872.09;5013513;28;20103;-81
2024/03/17 11:10:19;;;;;;;2.00;1.55;;;;;;;17.35;100.00;100865.78;5041742;28;20029;-81
2024/03/17 11:12:50;;;;;;;2.20;2.00;;;;;;;16.67;100.00;100837.94;5014409;28;20058;-80
2024/03/17 11:15:18;;;;;;;3.45;1.92;;;;;;;16.99;100.00;100853.25;5019106;28;20042;-81
2024/03/17 11:17:48;;;;;;;1.13;0.55;;;;;;;17.00;100.00;100852.34;5008968;28;20049;-80
2024/03/17 11:20:16;;;;;;;1.95;1.85;;;;;;;17.12;100.00;100827.38;5010121;28;20053;-82
2024/03/17 11:22:43;;;;;;;0.25;0.25;;;;;;;17.28;100.00;100817.31;5014392;28;20116;-82
2024/03/17 11:25:30;;;;;;;1.45;0.95;;;;;;;17.46;100.00;100843.44;5008311;28;20065;-81
2024/03/17 11:28:10;;;;;;;1.45;1.35;;;;;;;17.25;100.00;100806.75;4996321;28;20077;-82